createdAt,value
2023-02-09T00:11:53.288Z,-1.60
2023-02-09T00:16:02.288Z,-1.65
2023-02-09T00:20:11.148Z,-1.69
2023-02-09T00:24:21.580Z,-1.72
2023-02-09T00:28:31.297Z,-1.77
2023-02-09T00:32:40.277Z,-1.81
2023-02-09T00:36:48.948Z,-1.84
2023-02-09T01:06:00.526Z,-1.92
2023-02-09T01:10:09.405Z,-1.96
2023-02-09T01:14:18.237Z,-1.96
2023-02-09T01:22:01.360Z,-1.96
2023-02-09T01:26:10.394Z,-1.99
2023-02-09T01:30:19.535Z,-2.02
2023-02-09T01:34:18.655Z,-2.02
2023-02-09T02:02:20.357Z,-2.09
2023-02-09T02:06:29.166Z,-2.12
2023-02-09T02:10:37.895Z,-2.11
2023-02-09T02:26:49.949Z,-2.13
2023-02-09T02:30:59.183Z,-2.18
2023-02-09T02:35:08.097Z,-2.20
2023-02-09T02:50:52.598Z,-2.28
2023-02-09T02:55:01.184Z,-2.34
2023-02-09T02:58:50.502Z,-2.37
2023-02-09T03:02:49.547Z,-2.41
2023-02-09T03:06:49.656Z,-2.45
2023-02-09T03:11:10.691Z,-2.49
2023-02-09T03:15:19.274Z,-2.52
2023-02-09T03:19:34.369Z,-2.55
2023-02-09T03:23:43.158Z,-2.57
2023-02-09T03:27:58.040Z,-2.61
2023-02-09T03:32:07.566Z,-2.64
2023-02-09T04:00:00.417Z,-2.72
2023-02-09T04:04:09.689Z,-2.75
2023-02-09T04:08:01.463Z,-2.76
2023-02-09T04:12:11.571Z,-2.77
2023-02-09T04:19:26.486Z,-2.74
2023-02-09T04:23:26.325Z,-2.76
2023-02-09T04:27:35.313Z,-2.76
2023-02-09T04:47:27.056Z,-2.80
2023-02-09T04:51:35.924Z,-2.83
2023-02-09T04:55:44.469Z,-2.83
2023-02-09T04:59:56.286Z,-2.84
2023-02-09T05:19:38.114Z,-2.81
2023-02-09T05:23:47.158Z,-2.85
2023-02-09T05:27:56.022Z,-2.86
2023-02-09T05:32:12.366Z,-2.88
2023-02-09T05:36:12.569Z,-2.88
2023-02-09T05:40:22.158Z,-2.89
2023-02-09T05:44:32.665Z,-2.92
2023-02-09T06:00:21.754Z,-2.90
2023-02-09T06:04:21.356Z,-2.92
2023-02-09T06:08:20.760Z,-2.90
2023-02-09T06:12:20.872Z,-2.88
2023-02-09T06:15:59.382Z,-2.88
2023-02-09T06:19:50.115Z,-2.88
2023-02-09T06:23:58.821Z,-2.86
2023-02-09T06:27:51.694Z,-2.84
2023-02-09T06:31:56.583Z,-2.80
2023-02-09T06:36:06.605Z,-2.77
2023-02-09T06:40:03.793Z,-2.75
2023-02-09T06:43:52.328Z,-2.72
2023-02-09T06:53:35.132Z,-2.65
2023-02-09T06:57:37.102Z,-2.64
2023-02-09T07:01:21.434Z,-2.62
2023-02-09T07:05:21.300Z,-2.60
2023-02-09T07:09:11.809Z,-2.57
2023-02-09T07:12:26.021Z,-2.55
2023-02-09T07:16:34.718Z,-2.53
2023-02-09T07:20:32.468Z,-2.48
2023-02-09T07:24:29.837Z,-2.44
2023-02-09T07:28:38.581Z,-2.41
2023-02-09T07:32:27.974Z,-2.39
2023-02-09T07:54:21.796Z,-2.03
2023-02-09T07:58:13.169Z,-1.94
2023-02-09T08:02:12.142Z,-1.84
2023-02-09T08:06:41.094Z,-1.72
2023-02-09T08:10:35.109Z,-1.57
2023-02-09T08:53:06.089Z,-0.02
2023-02-09T08:57:15.017Z,0.12
2023-02-09T09:01:14.172Z,0.29
2023-02-09T09:05:22.966Z,0.47
2023-02-09T09:41:22.492Z,1.81
2023-02-09T09:45:10.854Z,1.89
2023-02-09T09:49:19.760Z,2.03
2023-02-09T10:35:30.341Z,3.07
2023-02-09T10:39:57.709Z,3.15
2023-02-09T10:44:05.615Z,3.27
2023-02-09T10:47:58.892Z,3.34
2023-02-09T10:52:07.679Z,3.44
2023-02-09T10:56:07.686Z,3.53
2023-02-09T11:00:16.488Z,3.58
2023-02-09T11:04:23.957Z,3.64
2023-02-09T11:08:40.038Z,3.77
2023-02-09T11:12:53.561Z,3.88
2023-02-09T11:17:03.483Z,3.98
2023-02-09T11:25:14.586Z,4.21
2023-02-09T12:11:31.129Z,5.08
2023-02-09T12:15:39.709Z,5.14
2023-02-09T12:19:34.519Z,5.22
2023-02-09T12:23:39.850Z,5.23
2023-02-09T12:27:48.837Z,5.26
2023-02-09T12:31:52.655Z,5.31
2023-02-09T12:35:56.030Z,5.41
2023-02-09T12:40:04.989Z,5.44
2023-02-09T12:44:06.111Z,5.56
2023-02-09T12:47:55.477Z,5.61
2023-02-09T12:51:45.344Z,5.63
2023-02-09T12:55:46.632Z,5.69
2023-02-09T12:59:53.972Z,5.71
2023-02-09T13:04:02.763Z,5.67
2023-02-09T13:08:14.535Z,5.61
2023-02-09T13:12:28.077Z,5.64
2023-02-09T13:16:21.725Z,5.69
2023-02-09T13:20:33.082Z,5.78
2023-02-09T13:24:51.246Z,5.85
2023-02-09T13:28:31.029Z,5.86
2023-02-09T13:32:32.232Z,5.72
2023-02-09T13:36:24.655Z,5.65
2023-02-09T13:40:36.653Z,5.65
2023-02-09T13:44:24.101Z,5.58
2023-02-09T13:48:10.544Z,5.48
2023-02-09T13:52:10.534Z,5.36
2023-02-09T13:56:11.849Z,5.30
2023-02-09T14:00:00.570Z,5.20
2023-02-09T14:04:05.491Z,5.10
2023-02-09T14:07:53.595Z,5.00
2023-02-09T14:12:07.279Z,4.89
2023-02-09T14:16:00.028Z,4.77
2023-02-09T14:19:59.940Z,4.66
2023-02-09T14:23:59.706Z,4.54
2023-02-09T14:27:58.123Z,4.45
2023-02-09T14:32:07.223Z,4.34
2023-02-09T14:35:58.006Z,4.27
2023-02-09T14:39:43.241Z,4.18
2023-02-09T14:43:52.061Z,4.09
2023-02-09T14:48:09.999Z,4.01
2023-02-09T14:52:05.257Z,3.95
2023-02-09T14:56:14.877Z,3.85
2023-02-09T15:08:09.144Z,3.52
2023-02-09T15:11:42.901Z,3.40
2023-02-09T15:42:47.540Z,2.54
2023-02-09T15:46:43.609Z,2.42
2023-02-09T15:54:27.548Z,2.24
2023-02-09T15:58:10.586Z,2.14
2023-02-09T16:01:45.026Z,2.06
2023-02-09T16:05:53.779Z,1.97
2023-02-09T16:09:44.125Z,1.89
2023-02-09T16:13:49.907Z,1.82
2023-02-09T16:17:58.668Z,1.75
2023-02-09T16:22:07.347Z,1.71
2023-02-09T16:26:06.101Z,1.68
2023-02-09T16:30:14.875Z,1.65
2023-02-09T16:34:23.646Z,1.62
2023-02-09T16:38:32.467Z,1.58
2023-02-09T16:42:41.549Z,1.55
2023-02-09T17:10:32.863Z,1.31
2023-02-09T17:14:41.682Z,1.28
2023-02-09T17:18:50.495Z,1.27
2023-02-09T17:55:53.100Z,1.26
2023-02-09T18:00:05.433Z,1.23
2023-02-09T18:03:57.372Z,1.21
2023-02-09T18:08:06.190Z,1.20
2023-02-09T18:12:28.409Z,1.19
2023-02-09T18:16:38.563Z,1.16
2023-02-09T18:43:38.672Z,1.03
2023-02-09T18:47:40.778Z,0.99
2023-02-09T18:51:34.194Z,0.97
2023-02-09T18:55:43.011Z,0.95
2023-02-09T18:59:51.789Z,0.93
2023-02-09T19:03:54.634Z,0.90
2023-02-09T19:23:46.872Z,0.77
2023-02-09T19:27:56.251Z,0.72
2023-02-09T19:32:06.069Z,0.68
2023-02-09T19:36:04.594Z,0.66
2023-02-09T19:40:13.388Z,0.69
2023-02-09T19:44:20.688Z,0.75
2023-02-09T19:48:29.509Z,0.80
2023-02-09T19:52:38.342Z,0.82
2023-02-09T19:56:28.489Z,0.83
2023-02-09T20:00:37.309Z,0.80
2023-02-09T20:04:45.621Z,0.74
2023-02-09T20:08:54.250Z,0.69
2023-02-09T20:46:36.440Z,0.24
2023-02-09T20:50:45.650Z,0.15
2023-02-09T20:54:44.708Z,0.10
2023-02-09T21:51:44.442Z,0.64
2023-02-09T21:55:53.214Z,0.72
2023-02-09T22:00:01.518Z,0.84
2023-02-09T22:04:00.824Z,0.96
2023-02-09T22:08:09.099Z,1.08
2023-02-09T22:12:19.268Z,1.19
2023-02-09T22:48:30.666Z,1.54
2023-02-09T23:12:34.105Z,1.51
2023-02-09T23:16:34.375Z,1.48
2023-02-09T23:20:43.340Z,1.50
2023-02-09T23:24:43.720Z,1.52
2023-02-09T23:48:38.365Z,1.54
2023-02-09T23:52:47.120Z,1.49
2023-02-09T23:56:38.728Z,1.45
